• Join FlightAware (Why Join?)
  • Login
  • US Flag 
Gobble Gobble! 
08:24PM EST


 

Airport Tracker/Info


-or-


 

Live Flight TrackerFlight Track Log ✈ EJA929 ✈ 09-Aug-2013 ✈ KPHX - KSMF

Flight Track Log - Related Links

Times and Time Zones

All times are in EDT time to prevent confusion due to time zone crossing. See the EJA929 flight status page for this flight to view local times or setup timezone preferences in your user account.

Time Position Orientation Groundspeed Altitude Reporting Facility
EDT Latitude Longitude Course Direction KTS MPH feet Rate Location/Type
03:34PM 33.4333 -111.9833 90° East 194 223 1,900  Level Phoenix TRACON
03:35PM 33.4333 -111.9167 90° East 225 259 4,700 2,400 Climbing Phoenix TRACON
03:36PM 33.4667 -111.8500 59° Northeast 285 328 6,800 2,400 Climbing Phoenix TRACON
03:37PM 33.5333 -111.8667 348° North 303 349 9,300 1,980 Climbing Phoenix TRACON
03:38PM 33.6178 -111.9444 323° Northwest 330 380 11,000 1,560 Climbing Albuquerque Center
03:39PM 33.7006 -112.0236 322° Northwest 373 429 12,800 1,680 Climbing Albuquerque Center
03:40PM 33.7858 -112.1036 322° Northwest 384 442 14,500 1,620 Climbing Albuquerque Center
03:41PM 33.8725 -112.1872 321° Northwest 394 453 16,200 1,500 Climbing Albuquerque Center
03:42PM 33.9625 -112.2717 322° Northwest 404 465 17,700 1,560 Climbing Albuquerque Center
03:43PM 34.0569 -112.3533 324° Northwest 415 478 19,500 1,620 Climbing Albuquerque Center
03:44PM 34.1639 -112.4178 334° Northwest 426 490 21,100 1,680 Climbing Albuquerque Center
03:45PM 34.2942 -112.4992 333° Northwest 436 502 23,000 1,680 Climbing Albuquerque Center
03:46PM 34.4044 -112.5669 333° Northwest 442 509 24,600 1,500 Climbing Albuquerque Center
03:47PM 34.4989 -112.6589 321° Northwest 449 517 26,100 1,500 Climbing Albuquerque Center
03:48PM 34.5825 -112.7744 311° West 457 526 27,700 1,500 Climbing Albuquerque Center
03:49PM 34.6667 -112.8908 311° West 460 529 29,300 1,800 Climbing Albuquerque Center
03:50PM 34.7531 -113.0111 311° West 468 539 31,500 2,400 Climbing Albuquerque Center
03:51PM 34.8539 -113.1536 311° West 465 535 34,300 2,160 Climbing Albuquerque Center
03:52PM 34.9369 -113.2733 310° West 463 533 36,000 780 Climbing Albuquerque Center
03:53PM 35.0119 -113.4086 304° West 476 548 36,000 60 Level Albuquerque Center
03:54PM 35.0883 -113.5444 305° West 484 557 36,200 780 Climbing Albuquerque Center
03:55PM 35.1622 -113.6781 304° West 478 550 37,700 1,440 Climbing Albuquerque Center
03:56PM 35.2367 -113.8128 304° West 479 551 39,200 900 Climbing Albuquerque Center
03:58PM 35.3500 -114.0153 304° West 486 559 40,000 300 Climbing Los Angeles Center
03:59PM 35.4256 -114.1508 304° West 484 557 40,000  Level Los Angeles Center
04:00PM 35.4992 -114.2872 304° West 479 551 40,000  Level Los Angeles Center
04:01PM 35.5856 -114.4428 304° West 465 535 40,000  Level Los Angeles Center
04:02PM 35.6561 -114.5722 304° West 459 528 40,000  Level Los Angeles Center
04:03PM 35.7414 -114.7300 304° West 459 528 40,000  Level Los Angeles Center
04:04PM 35.8117 -114.8611 303° West 460 529 40,000  Level Los Angeles Center
04:05PM 35.8836 -114.9936 304° West 463 533 40,000  Level Los Angeles Center
04:06PM 35.9553 -115.1275 304° West 466 536 40,000  Level Los Angeles Center
04:07PM 36.0428 -115.2906 304° West 473 544 40,000  Level Los Angeles Center
04:08PM 36.1142 -115.4250 303° West 468 539 40,000  Level Los Angeles Center
04:09PM 36.1858 -115.5619 303° West 467 537 40,000  Level Los Angeles Center
04:10PM 36.2592 -115.7036 303° West 470 541 40,000  Level Los Angeles Center
04:11PM 36.3322 -115.8408 303° West 470 541 40,000  Level Los Angeles Center
04:12PM 36.4008 -115.9717 303° West 467 537 40,000  Level Los Angeles Center
04:14PM 36.4708 -116.1061 303° West 464 534 40,000  Level Los Angeles Center
04:15PM 36.5553 -116.2689 303° West 466 536 40,000  Level Los Angeles Center
04:16PM 36.6267 -116.4047 303° West 467 537 40,000 -480 Level Los Angeles Center
04:17PM 36.6981 -116.5447 302° West 474 545 39,000 -960 Descending Los Angeles Center
04:18PM 36.7717 -116.6889 303° West 485 558 38,000 -1,020 Descending Los Angeles Center
04:19PM 36.8711 -116.8072 316° Northwest 499 574 37,000 -1,020 Descending Los Angeles Center
04:20PM 36.9881 -116.9042 326° Northwest 503 579 36,000 -540 Descending Los Angeles Center
04:21PM 37.1253 -117.0203 326° Northwest 498 573 36,000  Level Los Angeles Center
04:22PM 37.2183 -117.1339 316° Northwest 471 542 36,000  Level Los Angeles Center
04:23PM 37.2839 -117.2347 309° West 465 535 36,000 -180 Level Los Angeles Center
04:24PM 37.3828 -117.3858 310° West 465 535 35,700 -660 Descending Los Angeles Center
04:25PM 37.4667 -117.5147 309° West 472 543 34,700 -840 Descending Los Angeles Center
04:26PM 37.5522 -117.6472 309° West 482 555 34,000 -360 Descending Los Angeles Center
04:27PM 37.6372 -117.7794 309° West 483 556 34,000  Level Los Angeles Center
04:28PM 37.7369 -117.9328 309° West 473 544 34,000  Level Los Angeles Center
04:29PM 37.8200 -118.0636 309° West 473 544 34,000  Level Los Angeles Center
04:30PM 37.9050 -118.1967 309° West 479 551 34,000 -240 Level Los Angeles Center
04:32PM 38.0228 -118.3844 309° West 484 557 33,500 -660 Descending Oakland Center
04:33PM 38.1075 -118.5197 309° West 488 562 32,500 -960 Descending Oakland Center
04:34PM 38.1944 -118.6586 309° West 492 566 31,600 -960 Descending Oakland Center
04:35PM 38.2797 -118.7947 309° West 492 566 30,600 -840 Descending Oakland Center
04:36PM 38.3636 -118.9289 309° West 487 560 30,000 -300 Descending Oakland Center
04:37PM 38.4619 -119.0878 308° West 476 548 30,000  Level Oakland Center
04:38PM 38.5464 -119.2231 309° West 481 554 30,000  Level Oakland Center
04:39PM 38.6286 -119.3592 308° West 482 555 30,000 -300 Level Oakland Center
04:40PM 38.6903 -119.5033 299° West 469 540 29,500 -780 Descending Oakland Center
04:41PM 38.7231 -119.6611 285° West 456 525 28,400 -1,080 Descending Oakland Center
04:42PM 38.7544 -119.8150 285° West 462 532 27,400 -1,260 Descending Oakland Center
04:43PM 38.7858 -119.9758 284° West 465 535 25,900 -1,620 Descending Oakland Center
04:44PM 38.8242 -120.1631 285° West 457 526 24,100 -1,620 Descending Oakland Center
04:45PM 38.8553 -120.3175 285° West 450 518 22,600 -1,500 Descending Oakland Center
04:46PM 38.8869 -120.4714 285° West 448 516 21,100 -1,500 Descending Oakland Center
04:47PM 38.9164 -120.6219 284° West 439 505 19,600 -1,680 Descending Oakland Center
04:48PM 38.9453 -120.7686 284° West 428 493 17,700 -1,920 Descending Oakland Center
04:49PM 38.9736 -120.9128 284° West 421 484 15,700 -1,980 Descending Oakland Center
04:50PM 38.9781 -121.0522 272° West 405 466 13,700 -2,220 Descending Oakland Center
04:51PM 38.9417 -121.1939 252° West 347 399 11,200 -2,760 Descending Oakland Center
04:52PM 38.9322 -121.2933 263° West 289 333 8,100 -2,400 Descending Oakland Center
04:53PM 38.9311 -121.3922 269° West 281 323 6,400 -1,620 Descending Oakland Center
04:54PM 38.9319 -121.4867 271° West 269 310 4,900 -1,560 Descending Oakland Center
04:55PM 38.8886 -121.5483 228° Southwest 244 281 3,300 -1,260 Descending Oakland Center
04:56PM 38.8167 -121.6000 209° Southwest 211 243 2,200 -900 Descending Northern Cal TRACON
04:57PM 38.7667 -121.6000 180° South 152 175 1,400 -780 Descending Northern Cal TRACON
04:58PM 38.7333 -121.6000 180° South 133 153 700 -720 Descending Northern Cal TRACON
05:01PM 38.6954 -121.5908 218° Southwest  Level Estimated
05:08PM 38.6954 -121.5908 218° Southwest  Level Estimated